sensor_id;sensor_type;location;lat;lon;timestamp;P1;durP1;ratioP1;P2;durP2;ratioP2
8538;SDS011;4307;53.868;11.680;2022-10-04T14:21:38;5.07;;;1.90;;
8538;SDS011;4307;53.868;11.680;2022-10-04T14:24:48;2.13;;;1.80;;
8538;SDS011;4307;53.868;11.680;2022-10-04T14:30:39;4.57;;;2.33;;
8538;SDS011;4307;53.868;11.680;2022-10-04T14:33:36;8.07;;;3.10;;
8538;SDS011;4307;53.868;11.680;2022-10-04T14:39:41;5.50;;;3.07;;
8538;SDS011;4307;53.868;11.680;2022-10-04T14:45:31;8.50;;;3.17;;
8538;SDS011;4307;53.868;11.680;2022-10-04T14:48:13;6.77;;;2.93;;
8538;SDS011;4307;53.868;11.680;2022-10-04T14:51:19;5.77;;;3.27;;
8538;SDS011;4307;53.868;11.680;2022-10-04T14:53:58;4.30;;;2.50;;
8538;SDS011;4307;53.868;11.680;2022-10-04T14:56:44;6.80;;;3.37;;
8538;SDS011;4307;53.868;11.680;2022-10-04T14:59:25;3.90;;;2.93;;
8538;SDS011;4307;53.868;11.680;2022-10-04T15:05:18;8.90;;;3.27;;
8538;SDS011;4307;53.868;11.680;2022-10-04T15:08:13;6.00;;;4.03;;
8538;SDS011;4307;53.868;11.680;2022-10-04T15:11:00;7.23;;;3.83;;
8538;SDS011;4307;53.868;11.680;2022-10-04T15:13:32;5.53;;;2.70;;
8538;SDS011;4307;53.868;11.680;2022-10-04T15:16:04;9.07;;;3.30;;
8538;SDS011;4307;53.868;11.680;2022-10-04T15:18:38;3.80;;;2.30;;
8538;SDS011;4307;53.868;11.680;2022-10-04T15:21:19;5.43;;;2.73;;
8538;SDS011;4307;53.868;11.680;2022-10-04T15:24:09;5.13;;;2.40;;
8538;SDS011;4307;53.868;11.680;2022-10-04T15:29:55;4.37;;;2.20;;
8538;SDS011;4307;53.868;11.680;2022-10-04T15:32:35;6.80;;;2.23;;
8538;SDS011;4307;53.868;11.680;2022-10-04T15:35:12;8.00;;;2.50;;
8538;SDS011;4307;53.868;11.680;2022-10-04T15:37:49;5.33;;;2.90;;
8538;SDS011;4307;53.868;11.680;2022-10-04T15:40:24;6.10;;;2.50;;
8538;SDS011;4307;53.868;11.680;2022-10-04T15:43:10;5.33;;;2.77;;
8538;SDS011;4307;53.868;11.680;2022-10-04T15:45:59;4.10;;;2.60;;
8538;SDS011;4307;53.868;11.680;2022-10-04T15:48:44;10.97;;;3.77;;
8538;SDS011;4307;53.868;11.680;2022-10-04T15:51:35;5.47;;;2.97;;
8538;SDS011;4307;53.868;11.680;2022-10-04T15:54:30;3.40;;;2.60;;
8538;SDS011;4307;53.868;11.680;2022-10-04T15:57:16;6.33;;;2.70;;
8538;SDS011;4307;53.868;11.680;2022-10-04T15:59:54;4.90;;;2.83;;
8538;SDS011;4307;53.868;11.680;2022-10-04T16:05:24;6.83;;;3.10;;
8538;SDS011;4307;53.868;11.680;2022-10-04T16:08:13;5.50;;;2.57;;
8538;SDS011;4307;53.868;11.680;2022-10-04T16:14:21;6.60;;;3.60;;
8538;SDS011;4307;53.868;11.680;2022-10-04T16:17:18;11.30;;;4.87;;
8538;SDS011;4307;53.868;11.680;2022-10-04T16:20:17;8.03;;;4.40;;
8538;SDS011;4307;53.868;11.680;2022-10-04T16:25:56;7.03;;;3.70;;
8538;SDS011;4307;53.868;11.680;2022-10-04T16:28:42;3.90;;;3.10;;
8538;SDS011;4307;53.868;11.680;2022-10-04T16:31:38;6.03;;;3.30;;
8538;SDS011;4307;53.868;11.680;2022-10-04T16:34:16;4.60;;;3.33;;
8538;SDS011;4307;53.868;11.680;2022-10-04T16:36:56;7.67;;;3.20;;
8538;SDS011;4307;53.868;11.680;2022-10-04T16:39:33;10.37;;;4.90;;
8538;SDS011;4307;53.868;11.680;2022-10-04T16:42:21;32.57;;;16.63;;
8538;SDS011;4307;53.868;11.680;2022-10-04T16:44:53;23.43;;;12.20;;
8538;SDS011;4307;53.868;11.680;2022-10-04T16:47:25;16.80;;;7.83;;
8538;SDS011;4307;53.868;11.680;2022-10-04T16:49:58;18.40;;;7.20;;
8538;SDS011;4307;53.868;11.680;2022-10-04T16:52:42;11.60;;;5.30;;
8538;SDS011;4307;53.868;11.680;2022-10-04T16:55:16;14.57;;;4.23;;
8538;SDS011;4307;53.868;11.680;2022-10-04T17:04:16;8.20;;;5.73;;
8538;SDS011;4307;53.868;11.680;2022-10-04T17:07:06;7.97;;;5.47;;
8538;SDS011;4307;53.868;11.680;2022-10-04T17:09:45;10.03;;;7.00;;
8538;SDS011;4307;53.868;11.680;2022-10-04T17:12:15;4.30;;;3.10;;
8538;SDS011;4307;53.868;11.680;2022-10-04T17:17:41;13.90;;;8.10;;
8538;SDS011;4307;53.868;11.680;2022-10-04T17:20:14;17.63;;;7.73;;
8538;SDS011;4307;53.868;11.680;2022-10-04T17:22:55;30.00;;;12.67;;
8538;SDS011;4307;53.868;11.680;2022-10-04T17:25:32;7.77;;;4.90;;
8538;SDS011;4307;53.868;11.680;2022-10-04T17:28:10;20.00;;;9.60;;
8538;SDS011;4307;53.868;11.680;2022-10-04T17:30:46;36.97;;;16.97;;
8538;SDS011;4307;53.868;11.680;2022-10-04T17:33:26;28.10;;;9.63;;
8538;SDS011;4307;53.868;11.680;2022-10-04T17:39:05;14.10;;;5.57;;
8538;SDS011;4307;53.868;11.680;2022-10-04T17:41:47;5.97;;;2.60;;
8538;SDS011;4307;53.868;11.680;2022-10-04T17:44:26;9.80;;;4.53;;
8538;SDS011;4307;53.868;11.680;2022-10-04T17:47:02;12.33;;;4.63;;
8538;SDS011;4307;53.868;11.680;2022-10-04T17:49:37;6.00;;;3.70;;
8538;SDS011;4307;53.868;11.680;2022-10-04T17:52:29;8.00;;;3.37;;
8538;SDS011;4307;53.868;11.680;2022-10-04T17:55:25;8.00;;;3.83;;
8538;SDS011;4307;53.868;11.680;2022-10-04T17:57:54;5.17;;;3.10;;
8538;SDS011;4307;53.868;11.680;2022-10-04T18:00:27;3.17;;;2.87;;
8538;SDS011;4307;53.868;11.680;2022-10-04T18:03:17;9.00;;;3.07;;
8538;SDS011;4307;53.868;11.680;2022-10-04T18:05:46;6.73;;;3.20;;
8538;SDS011;4307;53.868;11.680;2022-10-04T18:08:19;4.43;;;3.10;;
8538;SDS011;4307;53.868;11.680;2022-10-04T18:11:04;3.60;;;2.93;;
8538;SDS011;4307;53.868;11.680;2022-10-04T18:13:42;9.33;;;3.37;;
8538;SDS011;4307;53.868;11.680;2022-10-04T18:16:14;9.17;;;3.23;;
8538;SDS011;4307;53.868;11.680;2022-10-04T18:18:47;8.13;;;3.83;;
8538;SDS011;4307;53.868;11.680;2022-10-04T18:21:19;7.27;;;3.37;;
8538;SDS011;4307;53.868;11.680;2022-10-04T18:23:51;6.43;;;3.53;;
8538;SDS011;4307;53.868;11.680;2022-10-04T18:26:21;4.70;;;2.73;;
8538;SDS011;4307;53.868;11.680;2022-10-04T18:28:51;4.33;;;2.70;;
8538;SDS011;4307;53.868;11.680;2022-10-04T18:31:19;7.93;;;3.47;;
8538;SDS011;4307;53.868;11.680;2022-10-04T18:33:54;8.37;;;4.00;;
8538;SDS011;4307;53.868;11.680;2022-10-04T18:36:23;7.70;;;3.23;;
8538;SDS011;4307;53.868;11.680;2022-10-04T18:39:03;7.47;;;2.80;;
8538;SDS011;4307;53.868;11.680;2022-10-04T18:41:53;6.43;;;2.67;;
8538;SDS011;4307;53.868;11.680;2022-10-04T18:44:25;7.63;;;2.67;;
8538;SDS011;4307;53.868;11.680;2022-10-04T18:46:54;4.70;;;2.60;;
8538;SDS011;4307;53.868;11.680;2022-10-04T18:49:22;2.73;;;2.53;;
8538;SDS011;4307;53.868;11.680;2022-10-04T18:51:54;4.50;;;2.40;;
8538;SDS011;4307;53.868;11.680;2022-10-04T18:54:31;5.27;;;2.77;;
8538;SDS011;4307;53.868;11.680;2022-10-04T18:57:15;5.80;;;2.50;;
8538;SDS011;4307;53.868;11.680;2022-10-04T18:59:51;6.87;;;2.90;;
8538;SDS011;4307;53.868;11.680;2022-10-04T19:02:47;6.17;;;3.07;;
8538;SDS011;4307;53.868;11.680;2022-10-04T19:05:21;4.33;;;3.03;;
8538;SDS011;4307;53.868;11.680;2022-10-04T19:07:57;5.37;;;3.20;;
8538;SDS011;4307;53.868;11.680;2022-10-04T19:10:31;4.67;;;3.40;;
8538;SDS011;4307;53.868;11.680;2022-10-04T19:13:08;7.37;;;3.17;;
8538;SDS011;4307;53.868;11.680;2022-10-04T19:15:52;4.20;;;2.93;;
8538;SDS011;4307;53.868;11.680;2022-10-04T19:18:39;6.53;;;3.47;;
8538;SDS011;4307;53.868;11.680;2022-10-04T19:21:22;5.57;;;2.50;;
8538;SDS011;4307;53.868;11.680;2022-10-04T19:27:01;4.47;;;2.67;;
8538;SDS011;4307;53.868;11.680;2022-10-04T19:29:35;9.27;;;3.10;;
8538;SDS011;4307;53.868;11.680;2022-10-04T19:32:17;6.47;;;3.03;;
8538;SDS011;4307;53.868;11.680;2022-10-04T19:34:55;4.83;;;2.60;;
8538;SDS011;4307;53.868;11.680;2022-10-04T19:37:30;4.17;;;3.00;;
8538;SDS011;4307;53.868;11.680;2022-10-04T19:40:02;5.13;;;3.10;;
8538;SDS011;4307;53.868;11.680;2022-10-04T19:42:43;6.40;;;3.20;;
8538;SDS011;4307;53.868;11.680;2022-10-04T19:45:21;5.53;;;3.03;;
8538;SDS011;4307;53.868;11.680;2022-10-04T19:47:57;5.27;;;2.83;;
8538;SDS011;4307;53.868;11.680;2022-10-04T19:50:26;4.17;;;3.23;;
8538;SDS011;4307;53.868;11.680;2022-10-04T19:53:00;3.63;;;3.10;;
8538;SDS011;4307;53.868;11.680;2022-10-04T19:55:37;5.63;;;3.17;;
8538;SDS011;4307;53.868;11.680;2022-10-04T19:58:15;9.53;;;3.60;;
8538;SDS011;4307;53.868;11.680;2022-10-04T20:00:49;6.40;;;3.67;;
8538;SDS011;4307;53.868;11.680;2022-10-04T20:03:16;6.80;;;3.10;;
8538;SDS011;4307;53.868;11.680;2022-10-04T20:05:43;5.27;;;3.00;;
8538;SDS011;4307;53.868;11.680;2022-10-04T20:08:11;7.43;;;3.33;;
8538;SDS011;4307;53.868;11.680;2022-10-04T20:10:39;4.83;;;3.80;;
8538;SDS011;4307;53.868;11.680;2022-10-04T20:13:21;5.67;;;3.33;;
8538;SDS011;4307;53.868;11.680;2022-10-04T20:15:51;7.00;;;3.67;;
8538;SDS011;4307;53.868;11.680;2022-10-04T20:21:34;6.03;;;3.30;;
8538;SDS011;4307;53.868;11.680;2022-10-04T20:24:01;4.80;;;3.23;;
8538;SDS011;4307;53.868;11.680;2022-10-04T20:26:35;5.40;;;3.40;;
8538;SDS011;4307;53.868;11.680;2022-10-04T20:38:42;4.33;;;3.70;;
8538;SDS011;4307;53.868;11.680;2022-10-04T20:44:45;9.10;;;3.90;;
8538;SDS011;4307;53.868;11.680;2022-10-04T20:47:20;5.47;;;3.30;;
8538;SDS011;4307;53.868;11.680;2022-10-04T20:49:59;7.07;;;3.90;;
8538;SDS011;4307;53.868;11.680;2022-10-04T20:52:27;6.13;;;3.37;;
8538;SDS011;4307;53.868;11.680;2022-10-04T20:54:55;5.37;;;3.50;;
8538;SDS011;4307;53.868;11.680;2022-10-04T20:57:25;8.13;;;4.13;;
8538;SDS011;4307;53.868;11.680;2022-10-04T20:59:53;6.80;;;3.73;;
8538;SDS011;4307;53.868;11.680;2022-10-04T21:02:20;7.77;;;3.70;;
8538;SDS011;4307;53.868;11.680;2022-10-04T21:04:48;7.47;;;3.60;;
8538;SDS011;4307;53.868;11.680;2022-10-04T21:07:19;4.73;;;3.17;;
8538;SDS011;4307;53.868;11.680;2022-10-04T21:09:47;4.50;;;3.70;;
8538;SDS011;4307;53.868;11.680;2022-10-04T21:12:26;5.33;;;3.50;;
8538;SDS011;4307;53.868;11.680;2022-10-04T21:15:02;9.87;;;4.10;;
8538;SDS011;4307;53.868;11.680;2022-10-04T21:17:34;6.63;;;3.73;;
8538;SDS011;4307;53.868;11.680;2022-10-04T21:20:04;6.77;;;3.60;;
8538;SDS011;4307;53.868;11.680;2022-10-04T21:22:39;9.03;;;3.80;;
8538;SDS011;4307;53.868;11.680;2022-10-04T21:25:28;5.23;;;3.63;;
8538;SDS011;4307;53.868;11.680;2022-10-04T21:30:49;6.40;;;3.80;;
8538;SDS011;4307;53.868;11.680;2022-10-04T21:33:15;6.17;;;3.77;;
8538;SDS011;4307;53.868;11.680;2022-10-04T21:35:42;7.60;;;3.80;;
8538;SDS011;4307;53.868;11.680;2022-10-04T21:38:10;7.77;;;3.90;;
8538;SDS011;4307;53.868;11.680;2022-10-04T21:40:37;4.30;;;3.40;;
8538;SDS011;4307;53.868;11.680;2022-10-04T21:43:03;8.03;;;3.90;;
8538;SDS011;4307;53.868;11.680;2022-10-04T21:45:30;6.70;;;3.83;;
8538;SDS011;4307;53.868;11.680;2022-10-04T21:47:56;7.93;;;3.73;;
8538;SDS011;4307;53.868;11.680;2022-10-04T21:50:23;9.00;;;4.00;;
8538;SDS011;4307;53.868;11.680;2022-10-04T21:52:50;4.60;;;3.87;;
8538;SDS011;4307;53.868;11.680;2022-10-04T21:55:18;5.63;;;3.77;;
8538;SDS011;4307;53.868;11.680;2022-10-04T21:57:44;8.27;;;3.97;;
8538;SDS011;4307;53.868;11.680;2022-10-04T22:00:11;5.53;;;4.33;;
8538;SDS011;4307;53.868;11.680;2022-10-04T22:02:38;7.30;;;3.70;;
8538;SDS011;4307;53.868;11.680;2022-10-04T22:05:05;7.57;;;3.57;;
8538;SDS011;4307;53.868;11.680;2022-10-04T22:07:32;9.73;;;3.80;;
8538;SDS011;4307;53.868;11.680;2022-10-04T22:09:58;8.53;;;4.20;;
8538;SDS011;4307;53.868;11.680;2022-10-04T22:12:26;4.77;;;3.47;;
8538;SDS011;4307;53.868;11.680;2022-10-04T22:14:53;5.73;;;3.83;;
8538;SDS011;4307;53.868;11.680;2022-10-04T22:17:19;6.27;;;4.00;;
8538;SDS011;4307;53.868;11.680;2022-10-04T22:19:46;8.67;;;4.17;;
8538;SDS011;4307;53.868;11.680;2022-10-04T22:22:13;6.67;;;3.70;;
8538;SDS011;4307;53.868;11.680;2022-10-04T22:24:41;7.80;;;5.63;;
8538;SDS011;4307;53.868;11.680;2022-10-04T22:27:09;5.20;;;4.00;;
8538;SDS011;4307;53.868;11.680;2022-10-04T22:29:39;7.77;;;4.27;;
8538;SDS011;4307;53.868;11.680;2022-10-04T22:32:08;5.80;;;4.20;;
8538;SDS011;4307;53.868;11.680;2022-10-04T22:34:37;11.23;;;4.30;;
8538;SDS011;4307;53.868;11.680;2022-10-04T22:37:04;4.33;;;3.87;;
8538;SDS011;4307;53.868;11.680;2022-10-04T22:39:34;5.90;;;3.73;;
8538;SDS011;4307;53.868;11.680;2022-10-04T22:42:01;8.63;;;4.00;;
8538;SDS011;4307;53.868;11.680;2022-10-04T22:44:29;5.10;;;4.37;;
8538;SDS011;4307;53.868;11.680;2022-10-04T22:47:01;7.57;;;3.93;;
8538;SDS011;4307;53.868;11.680;2022-10-04T22:49:30;8.17;;;4.77;;
8538;SDS011;4307;53.868;11.680;2022-10-04T22:51:58;7.93;;;4.70;;
8538;SDS011;4307;53.868;11.680;2022-10-04T22:54:29;7.40;;;4.60;;
8538;SDS011;4307;53.868;11.680;2022-10-04T22:56:57;5.07;;;4.00;;
8538;SDS011;4307;53.868;11.680;2022-10-04T22:59:26;6.47;;;4.20;;
8538;SDS011;4307;53.868;11.680;2022-10-04T23:01:58;9.80;;;4.27;;
8538;SDS011;4307;53.868;11.680;2022-10-04T23:04:28;8.53;;;4.50;;
8538;SDS011;4307;53.868;11.680;2022-10-04T23:06:55;8.70;;;4.43;;
8538;SDS011;4307;53.868;11.680;2022-10-04T23:09:22;6.30;;;4.67;;
8538;SDS011;4307;53.868;11.680;2022-10-04T23:11:48;7.07;;;4.27;;
8538;SDS011;4307;53.868;11.680;2022-10-04T23:14:15;5.70;;;4.63;;
8538;SDS011;4307;53.868;11.680;2022-10-04T23:16:42;11.17;;;4.33;;
8538;SDS011;4307;53.868;11.680;2022-10-04T23:19:09;8.93;;;4.30;;
8538;SDS011;4307;53.868;11.680;2022-10-04T23:21:39;7.70;;;4.57;;
8538;SDS011;4307;53.868;11.680;2022-10-04T23:24:12;4.80;;;4.03;;
8538;SDS011;4307;53.868;11.680;2022-10-04T23:26:42;7.70;;;4.73;;
8538;SDS011;4307;53.868;11.680;2022-10-04T23:29:13;7.40;;;4.30;;
8538;SDS011;4307;53.868;11.680;2022-10-04T23:31:43;6.57;;;4.30;;
8538;SDS011;4307;53.868;11.680;2022-10-04T23:34:12;6.27;;;4.70;;
8538;SDS011;4307;53.868;11.680;2022-10-04T23:36:44;7.63;;;4.53;;
8538;SDS011;4307;53.868;11.680;2022-10-04T23:39:11;8.67;;;4.47;;
8538;SDS011;4307;53.868;11.680;2022-10-04T23:41:44;8.30;;;4.73;;
8538;SDS011;4307;53.868;11.680;2022-10-04T23:44:11;7.47;;;4.50;;
8538;SDS011;4307;53.868;11.680;2022-10-04T23:46:40;6.20;;;4.27;;
8538;SDS011;4307;53.868;11.680;2022-10-04T23:49:07;8.03;;;4.33;;
8538;SDS011;4307;53.868;11.680;2022-10-04T23:51:38;6.87;;;4.63;;
8538;SDS011;4307;53.868;11.680;2022-10-04T23:54:08;6.47;;;4.20;;
8538;SDS011;4307;53.868;11.680;2022-10-04T23:56:37;8.57;;;4.83;;
8538;SDS011;4307;53.868;11.680;2022-10-04T23:59:03;8.97;;;4.67;;
